createdAt,value
2023-02-14T00:01:53.024Z,102917.22
2023-02-14T00:04:23.675Z,102911.09
2023-02-14T00:06:51.338Z,102919.88
2023-02-14T00:09:20.808Z,102921.69
2023-02-14T00:11:48.670Z,102916.47
2023-02-14T00:14:35.237Z,102914.78
2023-02-14T00:17:02.901Z,102914.78
2023-02-14T00:19:34.633Z,102920.09
2023-02-14T00:22:02.394Z,102915.78
2023-02-14T00:24:30.256Z,102920.19
2023-02-14T00:26:58.699Z,102923.69
2023-02-14T00:29:28.836Z,102922.00
2023-02-14T00:31:56.754Z,102923.75
2023-02-14T00:34:25.984Z,102920.28
2023-02-14T00:36:55.660Z,102923.81
2023-02-14T00:39:25.036Z,102918.63
2023-02-14T00:41:52.857Z,102916.91
2023-02-14T00:44:20.538Z,102923.91
2023-02-14T00:46:48.991Z,102920.44
2023-02-14T00:49:17.618Z,102922.25
2023-02-14T00:51:46.242Z,102924.00
2023-02-14T00:54:15.515Z,102928.41
2023-02-14T00:56:43.168Z,102924.94
2023-02-14T00:59:11.101Z,102928.47
2023-02-14T01:01:38.850Z,102927.63
2023-02-14T01:04:07.664Z,102927.69
2023-02-14T01:06:36.184Z,102928.56
2023-02-14T01:09:04.838Z,102932.97
2023-02-14T01:11:35.273Z,102933.88
2023-02-14T01:14:03.106Z,102933.03
2023-02-14T01:16:31.262Z,102933.94
2023-02-14T01:19:01.641Z,102947.03
2023-02-14T01:21:32.855Z,102935.75
2023-02-14T01:24:04.173Z,102941.00
2023-02-14T01:26:32.581Z,102936.72
2023-02-14T01:29:04.085Z,102937.56
2023-02-14T01:31:33.397Z,102934.09
2023-02-14T01:34:02.555Z,102935.84
2023-02-14T01:36:32.606Z,102932.31
2023-02-14T01:39:04.393Z,102932.34
2023-02-14T01:41:37.781Z,102930.66
2023-02-14T01:44:09.662Z,102937.63
2023-02-14T01:46:39.603Z,102941.16
2023-02-14T01:49:14.203Z,102930.72
2023-02-14T01:51:46.668Z,102931.59
2023-02-14T01:54:16.686Z,102930.75
2023-02-14T01:56:49.357Z,102929.91
2023-02-14T01:59:22.664Z,102923.81
2023-02-14T02:01:56.664Z,102924.69
2023-02-14T02:04:28.251Z,102925.59
2023-02-14T02:07:00.701Z,102928.22
2023-02-14T02:09:38.333Z,102921.25
2023-02-14T02:12:06.018Z,102923.88
2023-02-14T02:14:36.067Z,102926.53
2023-02-14T02:17:23.644Z,102924.78
2023-02-14T02:20:27.028Z,102923.94
2023-02-14T02:23:31.652Z,102923.97
2023-02-14T02:26:37.945Z,102917.88
2023-02-14T02:30:13.531Z,102914.38
2023-02-14T02:33:03.540Z,102905.69
2023-02-14T02:35:53.434Z,102904.78
2023-02-14T02:38:45.066Z,102899.56
2023-02-14T02:41:28.849Z,102896.09
2023-02-14T02:44:10.332Z,102901.31
2023-02-14T02:46:50.707Z,102903.94
2023-02-14T02:49:49.375Z,102903.09
2023-02-14T02:52:41.575Z,102897.88
2023-02-14T02:55:14.700Z,102897.03
2023-02-14T02:57:48.592Z,102885.69
2023-02-14T03:00:19.676Z,102888.28
2023-02-14T03:03:09.451Z,102884.81
2023-02-14T03:05:38.675Z,102881.31
2023-02-14T03:08:10.355Z,102881.31
2023-02-14T03:10:40.659Z,102875.22
2023-02-14T03:13:26.612Z,102876.09
2023-02-14T03:16:09.632Z,102869.16
2023-02-14T03:21:48.152Z,102877.88
2023-02-14T03:24:28.622Z,102875.25
2023-02-14T03:27:04.760Z,102877.03
2023-02-14T03:29:49.634Z,102880.53
2023-02-14T03:32:28.765Z,102876.19
2023-02-14T03:35:05.560Z,102877.91
2023-02-14T03:37:46.353Z,102871.84
2023-02-14T03:40:22.627Z,102867.50
2023-02-14T03:42:55.774Z,102858.78
2023-02-14T03:45:30.829Z,102864.00
2023-02-14T03:48:02.917Z,102852.66
2023-02-14T03:50:33.795Z,102856.16
2023-02-14T03:53:04.591Z,102856.19
2023-02-14T03:55:40.621Z,102855.31
2023-02-14T03:58:16.360Z,102855.34
2023-02-14T04:00:49.691Z,102858.84
2023-02-14T04:03:22.336Z,102858.84
2023-02-14T04:05:52.678Z,102861.47
2023-02-14T04:08:25.121Z,102852.78
2023-02-14T04:10:58.954Z,102853.66
2023-02-14T04:13:27.251Z,102853.66
2023-02-14T04:15:55.540Z,102850.19
2023-02-14T04:18:43.597Z,102848.44
2023-02-14T04:21:12.094Z,102851.06
2023-02-14T04:23:41.567Z,102851.94
2023-02-14T04:26:12.728Z,102849.31
2023-02-14T04:28:40.998Z,102843.25
2023-02-14T04:31:12.796Z,102847.66
2023-02-14T04:33:41.603Z,102846.78
2023-02-14T04:36:09.762Z,102838.94
2023-02-14T04:38:37.466Z,102837.22
2023-02-14T04:41:05.481Z,102834.63
2023-02-14T04:43:36.600Z,102832.88
2023-02-14T04:46:04.659Z,102836.38
2023-02-14T04:48:33.034Z,102823.31
2023-02-14T04:51:01.870Z,102829.44
2023-02-14T04:53:33.610Z,102831.16
2023-02-14T04:56:02.086Z,102830.31
2023-02-14T04:58:31.806Z,102814.63
2023-02-14T05:01:02.107Z,102821.63
2023-02-14T05:03:29.954Z,102818.09
2023-02-14T05:05:57.587Z,102813.78
2023-02-14T05:08:25.313Z,102811.22
2023-02-14T05:10:55.868Z,102812.06
2023-02-14T05:13:24.087Z,102806.88
2023-02-14T05:15:51.691Z,102808.63
2023-02-14T05:18:21.189Z,102811.25
2023-02-14T05:20:50.584Z,102811.25
2023-02-14T05:23:19.696Z,102809.53
2023-02-14T05:25:49.027Z,102807.75
2023-02-14T05:28:16.850Z,102809.50
2023-02-14T05:30:45.354Z,102810.41
2023-02-14T05:33:18.584Z,102801.69
2023-02-14T05:35:47.618Z,102800.81
2023-02-14T05:38:15.713Z,102805.19
2023-02-14T05:40:44.331Z,102807.81
2023-02-14T05:43:12.711Z,102804.34
2023-02-14T05:45:40.296Z,102811.28
2023-02-14T05:48:08.679Z,102813.91
2023-02-14T05:50:36.360Z,102808.69
2023-02-14T05:53:05.607Z,102810.47
2023-02-14T05:55:35.223Z,102816.59
2023-02-14T05:58:03.256Z,102814.81
2023-02-14T06:00:33.580Z,102819.19
2023-02-14T06:03:02.024Z,102816.59
2023-02-14T06:05:29.716Z,102814.81
2023-02-14T06:07:57.300Z,102814.81
2023-02-14T06:10:27.739Z,102825.28
2023-02-14T06:13:00.150Z,102824.44
2023-02-14T06:15:28.228Z,102837.53
2023-02-14T06:17:58.706Z,102835.78
2023-02-14T06:20:27.447Z,102834.03
2023-02-14T06:22:55.611Z,102834.91
2023-02-14T06:25:24.180Z,102834.03
2023-02-14T06:27:57.077Z,102832.28
2023-02-14T06:30:24.948Z,102834.03
2023-02-14T06:32:55.916Z,102838.38
2023-02-14T06:35:23.938Z,102835.78
2023-02-14T06:37:51.629Z,102838.38
2023-02-14T06:40:21.105Z,102841.91
2023-02-14T06:42:49.273Z,102841.00
2023-02-14T06:45:18.397Z,102843.63
2023-02-14T06:47:51.267Z,102846.22
2023-02-14T06:50:22.754Z,102846.22
2023-02-14T06:52:54.958Z,102858.44
2023-02-14T06:55:22.638Z,102858.41
2023-02-14T06:57:52.162Z,102859.28
2023-02-14T07:00:22.480Z,102856.66
2023-02-14T07:02:50.746Z,102863.66
2023-02-14T07:05:19.303Z,102863.66
2023-02-14T07:07:47.453Z,102869.78
2023-02-14T07:10:17.380Z,102859.31
2023-02-14T07:12:45.593Z,102862.78
2023-02-14T07:15:15.723Z,102863.66
2023-02-14T07:17:48.713Z,102857.53
2023-02-14T07:20:18.263Z,102861.88
2023-02-14T07:22:46.274Z,102867.97
2023-02-14T07:25:14.249Z,102860.94
2023-02-14T07:27:41.934Z,102873.97
2023-02-14T07:30:13.596Z,102860.88
2023-02-14T07:32:43.621Z,102861.66
2023-02-14T07:35:14.397Z,102856.34
2023-02-14T07:37:43.041Z,102861.53
2023-02-14T07:40:14.963Z,102864.06
2023-02-14T07:42:43.608Z,102863.97
2023-02-14T07:45:21.252Z,102861.22
2023-02-14T07:47:52.628Z,102848.94
2023-02-14T07:50:20.907Z,102849.75
2023-02-14T07:52:49.427Z,102852.34
2023-02-14T07:55:17.370Z,102854.03
2023-02-14T07:58:09.580Z,102860.97
2023-02-14T08:00:38.142Z,102858.38
2023-02-14T08:03:07.310Z,102857.44
2023-02-14T08:05:39.699Z,102853.06
2023-02-14T08:08:08.304Z,102859.06
2023-02-14T08:10:36.126Z,102847.63
2023-02-14T08:13:03.899Z,102849.28
2023-02-14T08:15:51.100Z,102850.09
2023-02-14T08:18:22.996Z,102841.28
2023-02-14T08:20:51.796Z,102845.56
2023-02-14T08:23:20.816Z,102846.41
2023-02-14T08:25:49.826Z,102844.63
2023-02-14T08:28:17.983Z,102841.97
2023-02-14T08:30:47.563Z,102848.06
2023-02-14T08:33:15.222Z,102852.41
2023-02-14T08:35:47.053Z,102856.69
2023-02-14T08:38:17.981Z,102853.09
2023-02-14T08:40:46.042Z,102859.00
2023-02-14T08:43:14.715Z,102857.97
2023-02-14T08:45:43.601Z,102852.63
2023-02-14T08:48:13.686Z,102848.16
2023-02-14T08:50:42.176Z,102856.69
2023-02-14T08:53:13.644Z,102842.47
2023-02-14T08:55:41.580Z,102841.50
2023-02-14T08:58:10.156Z,102839.63
2023-02-14T09:00:38.655Z,102834.31
2023-02-14T09:03:06.391Z,102832.50
2023-02-14T09:05:36.606Z,102835.91
2023-02-14T09:08:04.666Z,102830.47
2023-02-14T09:10:33.680Z,102826.75
2023-02-14T09:13:02.643Z,102823.72
2023-02-14T09:15:30.361Z,102822.22
2023-02-14T09:17:58.068Z,102817.31
2023-02-14T09:20:26.071Z,102823.84
2023-02-14T09:22:56.524Z,102822.53
2023-02-14T09:25:24.307Z,102819.44
2023-02-14T09:27:53.514Z,102814.47
2023-02-14T09:30:22.216Z,102818.44
2023-02-14T09:32:52.440Z,102810.91
2023-02-14T09:35:37.932Z,102819.22
2023-02-14T09:38:05.701Z,102811.75
2023-02-14T09:40:34.580Z,102812.19
2023-02-14T09:43:11.793Z,102812.69
2023-02-14T09:45:41.031Z,102817.47
2023-02-14T09:48:19.579Z,102818.00
2023-02-14T09:50:50.741Z,102811.59
2023-02-14T09:53:24.561Z,102814.63
2023-02-14T09:55:58.152Z,102809.94
2023-02-14T09:58:33.306Z,102802.56
2023-02-14T10:01:07.780Z,102800.38
2023-02-14T10:03:52.589Z,102802.47
2023-02-14T10:06:41.609Z,102799.78
2023-02-14T10:09:22.888Z,102800.38
2023-02-14T10:11:51.601Z,102802.53
2023-02-14T10:14:24.296Z,102806.41
2023-02-14T10:16:56.752Z,102811.81
2023-02-14T10:19:28.369Z,102796.56
2023-02-14T10:22:02.661Z,102803.06
2023-02-14T10:25:01.101Z,102801.81
2023-02-14T10:27:34.712Z,102801.94
2023-02-14T10:30:13.717Z,102794.25
2023-02-14T10:32:46.794Z,102792.75
2023-02-14T10:35:42.798Z,102792.16
2023-02-14T10:38:21.505Z,102787.44
2023-02-14T10:41:36.433Z,102780.75
2023-02-14T10:44:27.608Z,102777.66
2023-02-14T10:47:06.745Z,102780.53
2023-02-14T10:49:45.637Z,102780.00
2023-02-14T10:52:22.913Z,102775.38
2023-02-14T10:54:55.322Z,102773.88
2023-02-14T10:57:28.828Z,102770.53
2023-02-14T11:00:02.064Z,102767.72
2023-02-14T11:02:35.254Z,102770.91
2023-02-14T11:05:05.624Z,102770.81
2023-02-14T11:07:36.634Z,102761.72
2023-02-14T11:10:13.696Z,102754.84
2023-02-14T11:12:42.473Z,102747.47
2023-02-14T11:15:22.883Z,102742.22
2023-02-14T11:18:09.841Z,102734.84
2023-02-14T11:20:39.201Z,102729.63
2023-02-14T11:23:20.621Z,102729.22
2023-02-14T11:25:55.476Z,102726.28
2023-02-14T11:28:23.667Z,102721.78
2023-02-14T11:30:52.887Z,102718.88
2023-02-14T11:33:34.631Z,102716.50
2023-02-14T11:36:08.672Z,102719.38
2023-02-14T11:38:38.382Z,102706.47
2023-02-14T11:41:08.662Z,102698.28
2023-02-14T11:43:38.298Z,102698.91
2023-02-14T11:46:14.668Z,102694.47
2023-02-14T11:48:58.015Z,102699.06
2023-02-14T11:51:36.592Z,102693.38
2023-02-14T11:54:06.497Z,102688.81
2023-02-14T11:56:51.096Z,102687.84
2023-02-14T11:59:30.720Z,102689.19
2023-02-14T12:02:05.164Z,102685.50
2023-02-14T12:04:46.322Z,102678.69
2023-02-14T12:07:29.024Z,102679.56
2023-02-14T12:10:29.708Z,102667.94
2023-02-14T12:13:03.410Z,102664.75
2023-02-14T12:15:37.801Z,102662.00
2023-02-14T12:18:43.852Z,102654.91
2023-02-14T12:21:34.676Z,102654.97
2023-02-14T12:24:13.612Z,102657.31
2023-02-14T12:26:49.709Z,102645.41
2023-02-14T12:29:26.132Z,102651.31
2023-02-14T12:31:55.005Z,102653.13
2023-02-14T12:34:23.056Z,102650.22
2023-02-14T12:37:08.644Z,102649.25
2023-02-14T12:39:43.200Z,102645.66
2023-02-14T12:42:23.133Z,102642.00
2023-02-14T12:45:00.110Z,102639.50
2023-02-14T12:47:40.937Z,102634.25
2023-02-14T12:50:28.267Z,102626.91
2023-02-14T12:53:19.662Z,102626.91
2023-02-14T12:55:56.297Z,102624.06
2023-02-14T12:58:38.031Z,102612.13
2023-02-14T13:01:39.055Z,102606.28
2023-02-14T13:04:24.506Z,102601.25
2023-02-14T13:06:58.695Z,102598.72
2023-02-14T13:09:39.594Z,102591.22
2023-02-14T13:12:21.274Z,102598.00
2023-02-14T13:15:02.650Z,102588.50
2023-02-14T13:17:38.674Z,102592.78
2023-02-14T13:20:28.952Z,102585.16
2023-02-14T13:22:58.548Z,102589.09
2023-02-14T13:25:33.769Z,102586.50
2023-02-14T13:28:04.638Z,102584.63
2023-02-14T13:30:34.672Z,102580.91
2023-02-14T13:33:07.196Z,102570.09
2023-02-14T13:35:36.130Z,102562.00
2023-02-14T13:38:08.356Z,102565.50
2023-02-14T13:40:38.527Z,102560.66
2023-02-14T13:43:09.684Z,102567.03
2023-02-14T13:45:53.854Z,102559.91
2023-02-14T13:48:29.272Z,102548.97
2023-02-14T13:51:00.915Z,102548.88
2023-02-14T13:53:33.598Z,102546.47
2023-02-14T13:56:06.273Z,102551.06
2023-02-14T13:58:35.167Z,102546.69
2023-02-14T14:01:32.624Z,102542.31
2023-02-14T14:04:02.339Z,102544.97
2023-02-14T14:06:30.697Z,102544.97
2023-02-14T14:08:58.522Z,102542.97
2023-02-14T14:12:02.404Z,102540.03
2023-02-14T14:14:36.606Z,102539.63
2023-02-14T14:17:25.808Z,102535.63
2023-02-14T14:19:54.185Z,102532.78
2023-02-14T14:22:24.578Z,102527.25
2023-02-14T14:24:55.765Z,102521.91
2023-02-14T14:27:27.684Z,102517.25
2023-02-14T14:29:59.981Z,102529.91
2023-02-14T14:32:53.018Z,102523.72
2023-02-14T14:35:26.596Z,102520.09
2023-02-14T14:37:55.820Z,102517.66
2023-02-14T14:40:26.101Z,102520.44
2023-02-14T14:42:56.543Z,102520.59
2023-02-14T14:45:27.533Z,102520.72
2023-02-14T14:47:58.519Z,102514.59
2023-02-14T14:50:32.628Z,102515.47
2023-02-14T14:53:05.133Z,102514.41
2023-02-14T14:55:37.628Z,102515.75
2023-02-14T14:58:09.616Z,102501.47
2023-02-14T15:00:38.933Z,102501.47
2023-02-14T15:03:16.631Z,102502.03
2023-02-14T15:05:47.645Z,102495.00
2023-02-14T15:08:17.953Z,102498.63
2023-02-14T15:10:50.647Z,102495.94
2023-02-14T15:13:40.465Z,102491.66
2023-02-14T15:16:09.621Z,102496.34
2023-02-14T15:18:39.068Z,102487.78
2023-02-14T15:21:08.673Z,102497.75
2023-02-14T15:23:38.606Z,102495.19
2023-02-14T15:26:08.448Z,102492.75
2023-02-14T15:28:38.488Z,102484.19
2023-02-14T15:31:08.673Z,102478.19
2023-02-14T15:33:37.128Z,102480.38
2023-02-14T15:36:09.637Z,102476.19
2023-02-14T15:38:42.699Z,102479.16
2023-02-14T15:41:37.653Z,102474.13
2023-02-14T15:44:07.629Z,102478.03
2023-02-14T15:46:41.455Z,102475.63
2023-02-14T15:49:11.299Z,102472.41
2023-02-14T15:51:40.425Z,102475.34
2023-02-14T15:54:10.778Z,102472.97
2023-02-14T15:56:45.639Z,102466.22
2023-02-14T15:59:18.133Z,102465.66
2023-02-14T16:01:52.529Z,102466.88
2023-02-14T16:04:28.136Z,102462.78
2023-02-14T16:07:17.017Z,102464.84
2023-02-14T16:09:44.679Z,102460.19
2023-02-14T16:12:32.227Z,102458.81
2023-02-14T16:15:10.747Z,102460.97
2023-02-14T16:17:38.457Z,102457.72
2023-02-14T16:20:24.052Z,102457.34
2023-02-14T16:22:52.071Z,102465.66
2023-02-14T16:25:21.683Z,102459.00
2023-02-14T16:27:52.673Z,102456.78
2023-02-14T16:30:22.387Z,102459.88
2023-02-14T16:32:53.780Z,102461.09
2023-02-14T16:35:22.705Z,102462.47
2023-02-14T16:37:51.821Z,102462.88
2023-02-14T16:40:24.622Z,102460.59
2023-02-14T16:42:53.150Z,102458.47
2023-02-14T16:45:22.115Z,102459.81
2023-02-14T16:47:50.608Z,102468.31
2023-02-14T16:53:22.614Z,102465.72
2023-02-14T16:55:56.766Z,102468.09
2023-02-14T16:58:33.961Z,102460.59
2023-02-14T17:01:03.530Z,102464.63
2023-02-14T17:03:33.640Z,102465.94
2023-02-14T17:06:02.540Z,102464.66
2023-02-14T17:11:25.945Z,102470.88
2023-02-14T17:13:57.614Z,102459.78
2023-02-14T17:16:31.133Z,102463.78
2023-02-14T17:18:59.488Z,102466.03
2023-02-14T17:21:27.181Z,102465.66
2023-02-14T17:23:59.548Z,102460.81
2023-02-14T17:26:27.099Z,102463.94
2023-02-14T17:28:55.638Z,102460.78
2023-02-14T17:31:25.746Z,102471.75
2023-02-14T17:33:57.795Z,102470.44
2023-02-14T17:36:25.407Z,102469.94
2023-02-14T17:38:55.225Z,102464.91
2023-02-14T17:41:26.718Z,102470.59
2023-02-14T17:43:55.453Z,102467.44
2023-02-14T17:46:23.182Z,102471.38
2023-02-14T17:48:50.859Z,102469.09
2023-02-14T17:51:20.735Z,102472.94
2023-02-14T17:53:50.348Z,102476.78
2023-02-14T17:56:20.615Z,102474.44
2023-02-14T17:58:50.571Z,102463.34
2023-02-14T18:01:20.835Z,102473.34
2023-02-14T18:03:48.751Z,102470.97
2023-02-14T18:06:16.591Z,102469.59
2023-02-14T18:08:49.285Z,102473.34
2023-02-14T18:11:19.290Z,102468.34
2023-02-14T18:13:47.782Z,102466.03
2023-02-14T18:16:18.873Z,102471.59
2023-02-14T18:18:46.747Z,102466.66
2023-02-14T18:21:18.794Z,102470.41
2023-02-14T18:23:48.017Z,102461.88
2023-02-14T18:26:17.991Z,102453.38
2023-02-14T18:28:46.695Z,102452.72
2023-02-14T18:31:16.679Z,102453.84
2023-02-14T18:33:45.241Z,102449.72
2023-02-14T18:36:14.561Z,102447.34
2023-02-14T18:38:43.800Z,102444.16
2023-02-14T18:41:15.127Z,102440.00
2023-02-14T18:43:43.654Z,102441.16
2023-02-14T18:46:13.440Z,102439.66
2023-02-14T18:48:41.610Z,102427.63
2023-02-14T18:51:11.038Z,102436.63
2023-02-14T18:53:39.746Z,102428.97
2023-02-14T18:56:10.836Z,102426.56
2023-02-14T18:58:41.445Z,102427.66
2023-02-14T19:01:10.078Z,102427.84
2023-02-14T19:03:37.732Z,102428.06
2023-02-14T19:06:05.757Z,102424.75
2023-02-14T19:08:34.375Z,102426.78
2023-02-14T19:11:02.304Z,102425.22
2023-02-14T19:13:32.147Z,102423.75
2023-02-14T19:16:01.756Z,102424.84
2023-02-14T19:18:30.138Z,102433.78
2023-02-14T19:20:57.697Z,102429.53
2023-02-14T19:23:25.313Z,102434.09
2023-02-14T19:25:53.546Z,102431.66
2023-02-14T19:28:21.472Z,102421.22
2023-02-14T19:30:49.222Z,102425.84
2023-02-14T19:33:18.268Z,102431.25
2023-02-14T19:35:46.622Z,102426.13
2023-02-14T19:38:14.217Z,102428.06
2023-02-14T19:40:44.942Z,102429.09
2023-02-14T19:43:12.716Z,102427.53
2023-02-14T19:45:40.322Z,102420.69
2023-02-14T19:48:07.939Z,102425.28
2023-02-14T19:50:39.743Z,102423.69
2023-02-14T19:53:07.453Z,102425.59
2023-02-14T19:55:35.064Z,102424.91
2023-02-14T19:58:03.200Z,102423.28
2023-02-14T20:00:31.027Z,102427.88
2023-02-14T20:03:01.458Z,102429.66
2023-02-14T20:05:29.732Z,102422.84
2023-02-14T20:07:58.984Z,102419.47
2023-02-14T20:10:26.931Z,102418.69
2023-02-14T20:12:54.563Z,102413.59
2023-02-14T20:15:22.177Z,102408.47
2023-02-14T20:17:50.608Z,102407.72
2023-02-14T20:20:18.387Z,102403.41
2023-02-14T20:22:46.181Z,102408.00
2023-02-14T20:25:15.653Z,102397.59
2023-02-14T20:27:43.351Z,102391.50
2023-02-14T20:30:12.148Z,102391.63
2023-02-14T20:32:39.876Z,102380.34
2023-02-14T20:35:07.915Z,102383.13
2023-02-14T20:37:36.257Z,102386.66
2023-02-14T20:40:04.360Z,102381.56
2023-02-14T20:42:33.590Z,102382.50
2023-02-14T20:45:01.323Z,102373.88
2023-02-14T20:47:29.622Z,102376.59
2023-02-14T20:49:57.199Z,102373.16
2023-02-14T20:52:26.874Z,102368.03
2023-02-14T20:54:55.204Z,102370.72
2023-02-14T20:57:23.439Z,102375.22
2023-02-14T20:59:52.476Z,102369.22
2023-02-14T21:02:20.573Z,102364.13
2023-02-14T21:04:48.247Z,102370.34
2023-02-14T21:07:15.898Z,102377.44
2023-02-14T21:09:43.867Z,102374.25
2023-02-14T21:12:14.016Z,102373.47
2023-02-14T21:14:41.653Z,102372.72
2023-02-14T21:17:11.622Z,102374.53
2023-02-14T21:19:39.218Z,102372.81
2023-02-14T21:22:07.724Z,102372.16
2023-02-14T21:24:36.602Z,102364.44
2023-02-14T21:29:57.678Z,102355.94
2023-02-14T21:32:33.627Z,102364.81
2023-02-14T21:35:01.195Z,102361.41
2023-02-14T21:37:28.805Z,102358.94
2023-02-14T21:39:56.514Z,102364.25
2023-02-14T21:42:26.282Z,102363.53
2023-02-14T21:45:11.637Z,102360.94
2023-02-14T21:47:40.706Z,102361.94
2023-02-14T21:50:28.690Z,102363.81
2023-02-14T21:53:00.394Z,102365.69
2023-02-14T21:55:28.180Z,102364.91
2023-02-14T21:57:56.705Z,102365.88
2023-02-14T22:00:24.631Z,102369.53
2023-02-14T22:02:53.821Z,102377.47
2023-02-14T22:05:21.896Z,102379.34
2023-02-14T22:07:50.759Z,102378.59
2023-02-14T22:10:18.496Z,102376.03
2023-02-14T22:12:46.057Z,102377.91
2023-02-14T22:15:13.824Z,102371.84
2023-02-14T22:17:41.457Z,102368.41
2023-02-14T22:20:12.172Z,102366.78
2023-02-14T22:22:40.223Z,102356.38
2023-02-14T22:25:08.144Z,102363.44
2023-02-14T22:27:39.084Z,102358.31
2023-02-14T22:30:08.328Z,102356.72
2023-02-14T22:32:36.717Z,102355.03
2023-02-14T22:35:04.367Z,102354.25
2023-02-14T22:37:33.643Z,102355.19
2023-02-14T22:40:01.297Z,102355.22
2023-02-14T22:42:28.894Z,102358.78
2023-02-14T22:44:56.540Z,102353.63
2023-02-14T22:47:25.700Z,102348.44
2023-02-14T22:49:53.366Z,102359.91
2023-02-14T22:52:20.972Z,102352.09
2023-02-14T22:54:52.544Z,102352.13
2023-02-14T22:57:20.825Z,102345.19
2023-02-14T22:59:48.461Z,102340.03
2023-02-14T23:02:16.112Z,102341.84
2023-02-14T23:04:45.636Z,102334.00
2023-02-14T23:07:15.495Z,102340.19
2023-02-14T23:09:43.135Z,102342.88
2023-02-14T23:12:32.313Z,102343.88
2023-02-14T23:15:17.820Z,102341.34
2023-02-14T23:18:02.897Z,102345.78
2023-02-14T23:20:48.620Z,102350.22
2023-02-14T23:23:16.209Z,102345.94
2023-02-14T23:25:44.104Z,102345.97
2023-02-14T23:28:13.161Z,102344.31
2023-02-14T23:30:40.993Z,102352.22
2023-02-14T23:33:08.596Z,102346.16
2023-02-14T23:35:37.184Z,102340.13
2023-02-14T23:38:04.853Z,102342.84
2023-02-14T23:40:53.220Z,102342.03
2023-02-14T23:43:22.752Z,102353.47
2023-02-14T23:45:50.457Z,102341.34
2023-02-14T23:48:18.060Z,102343.16
2023-02-14T23:50:45.717Z,102348.38
2023-02-14T23:53:15.204Z,102343.16
2023-02-14T23:55:42.886Z,102340.59
2023-02-14T23:58:10.508Z,102338.91
